Аэропорт: Сургут. Сургут

ICAO: USRR

METAR:
2018/05/20 23:00
USRR 202300Z 22002MPS 9999 SCT009 09/09 Q0999 R25/250250 NOSIG RMK QFE744
METAR:
2018/05/20 21:24
TAF TAF USRR 201955Z 2021/2121 20003MPS 3100 -SHRA BR BKN005 BKN015CB 
      TEMPO 2021/2102 0900 FG VV003 
     FM210200 33007G13MPS 9999 SCT011 BKN020CB 
      TEMPO 2102/2112 3100-SHRA SCT005 BKN015CB